createdAt,value
2023-05-31T00:04:45.848Z,7.04
2023-05-31T00:09:50.519Z,6.99
2023-05-31T00:14:53.946Z,6.91
2023-05-31T00:19:57.174Z,6.82
2023-05-31T00:25:01.996Z,6.77
2023-05-31T00:30:08.045Z,6.82
2023-05-31T00:35:11.458Z,6.78
2023-05-31T00:40:16.700Z,6.80
2023-05-31T00:45:20.133Z,6.77
2023-05-31T00:50:23.892Z,6.91
2023-05-31T00:55:29.319Z,7.16
2023-05-31T01:00:33.749Z,7.48
2023-05-31T01:05:37.065Z,7.71
2023-05-31T01:10:41.776Z,7.90
2023-05-31T01:15:52.683Z,7.97
2023-05-31T01:20:59.494Z,8.04
2023-05-31T01:26:37.771Z,8.16
2023-05-31T01:31:43.879Z,8.31
2023-05-31T01:36:47.229Z,8.43
2023-05-31T01:41:54.141Z,8.48
2023-05-31T01:46:58.321Z,8.48
2023-05-31T01:52:02.168Z,8.52
2023-05-31T01:57:08.330Z,8.47
2023-05-31T02:02:12.450Z,8.84
2023-05-31T02:07:16.003Z,9.03
2023-05-31T02:12:21.034Z,9.38
2023-05-31T02:17:25.097Z,9.53
2023-05-31T02:22:28.471Z,10.00
2023-05-31T02:27:33.277Z,10.21
2023-05-31T02:32:38.542Z,10.34
2023-05-31T02:37:42.313Z,10.55
2023-05-31T02:42:46.973Z,10.75
2023-05-31T02:47:50.473Z,11.02
2023-05-31T02:52:53.921Z,11.27
2023-05-31T02:57:58.639Z,11.57
2023-05-31T03:03:02.118Z,12.00
2023-05-31T03:08:05.622Z,12.35
2023-05-31T03:13:11.278Z,12.47
2023-05-31T03:18:14.649Z,12.49
2023-05-31T03:23:18.034Z,12.73
2023-05-31T03:28:23.145Z,13.04
2023-05-31T03:33:26.507Z,13.38
2023-05-31T03:38:30.541Z,13.64
2023-05-31T03:43:35.736Z,13.87
2023-05-31T03:48:39.345Z,13.80
2023-05-31T03:53:42.728Z,13.70
2023-05-31T03:58:48.859Z,13.51
2023-05-31T04:03:52.549Z,13.29
2023-05-31T04:08:56.162Z,13.11
2023-05-31T04:14:01.351Z,13.31
2023-05-31T04:19:05.016Z,13.77
2023-05-31T04:24:09.185Z,13.95
2023-05-31T04:29:14.600Z,14.29
2023-05-31T04:34:20.490Z,14.69
2023-05-31T04:39:24.967Z,15.06
2023-05-31T04:44:29.842Z,15.44
2023-05-31T04:49:40.210Z,15.07
2023-05-31T04:54:55.666Z,14.50
2023-05-31T05:00:00.891Z,13.85
2023-05-31T05:05:05.665Z,13.27
2023-05-31T05:10:09.841Z,12.94
2023-05-31T05:15:14.946Z,12.72
2023-05-31T05:20:19.540Z,12.59
2023-05-31T05:25:23.901Z,12.33
2023-05-31T05:30:28.919Z,12.13
2023-05-31T05:35:32.601Z,12.10
2023-05-31T05:40:36.295Z,11.87
2023-05-31T05:45:41.400Z,11.67
2023-05-31T05:50:44.843Z,11.56
2023-05-31T05:55:51.352Z,11.48
2023-05-31T06:00:56.736Z,11.45
2023-05-31T06:06:00.272Z,11.44
2023-05-31T06:11:04.340Z,11.48
2023-05-31T06:16:09.370Z,11.58
2023-05-31T06:21:12.934Z,11.66
2023-05-31T06:26:16.462Z,11.74
2023-05-31T06:31:21.932Z,11.88
2023-05-31T06:36:25.991Z,12.03
2023-05-31T06:41:30.691Z,12.40
2023-05-31T06:46:35.638Z,12.88
2023-05-31T06:51:39.271Z,13.44
2023-05-31T06:56:43.106Z,14.06
2023-05-31T07:01:48.048Z,14.42
2023-05-31T07:06:51.640Z,14.75
2023-05-31T07:11:55.075Z,15.48
2023-05-31T07:16:59.888Z,16.21
2023-05-31T07:22:03.446Z,16.67
2023-05-31T07:27:07.721Z,16.95
2023-05-31T07:32:12.688Z,17.20
2023-05-31T07:37:16.246Z,17.88
2023-05-31T07:42:20.086Z,18.19
2023-05-31T07:47:25.615Z,18.14
2023-05-31T07:52:29.126Z,18.51
2023-05-31T07:57:32.654Z,19.16
2023-05-31T08:02:37.838Z,18.96
2023-05-31T08:07:41.756Z,18.92
2023-05-31T08:12:45.486Z,18.63
2023-05-31T08:17:50.400Z,18.87
2023-05-31T08:22:54.426Z,22.53
2023-05-31T08:27:57.908Z,22.67
2023-05-31T08:33:02.879Z,22.69
2023-05-31T08:38:06.455Z,24.62
2023-05-31T09:13:08.991Z,17.82
2023-05-31T09:18:17.518Z,16.36
2023-05-31T09:23:21.642Z,15.02
2023-05-31T09:28:26.983Z,14.08
2023-05-31T09:33:40.306Z,14.30
2023-05-31T09:38:43.953Z,13.67
2023-05-31T09:43:50.494Z,13.26
2023-05-31T09:49:01.572Z,12.55
2023-05-31T09:54:11.917Z,12.12
2023-05-31T09:59:17.884Z,11.97
2023-05-31T10:04:22.507Z,13.29
2023-05-31T10:09:26.203Z,15.08
2023-05-31T10:14:36.991Z,16.70
2023-05-31T10:19:47.820Z,18.17
2023-05-31T10:24:54.979Z,18.97
2023-05-31T10:30:06.388Z,17.73
2023-05-31T10:35:11.962Z,18.17
2023-05-31T10:40:20.322Z,17.37
2023-05-31T10:45:30.897Z,15.43
2023-05-31T10:50:34.525Z,14.43
2023-05-31T10:55:43.582Z,13.70
2023-05-31T11:00:50.276Z,13.91
2023-05-31T11:05:58.288Z,13.83
2023-05-31T11:11:46.250Z,13.56
2023-05-31T11:17:18.748Z,13.47
2023-05-31T11:22:28.211Z,13.45
2023-05-31T11:27:39.293Z,13.65
2023-05-31T11:33:20.227Z,13.86
2023-05-31T11:38:23.996Z,13.37
2023-05-31T11:43:28.294Z,13.13
2023-05-31T11:48:47.175Z,12.97
2023-05-31T11:53:50.867Z,12.15
2023-05-31T11:58:54.356Z,11.85
2023-05-31T12:04:03.050Z,12.05
2023-05-31T12:09:12.267Z,12.51
2023-05-31T12:14:17.617Z,12.76
2023-05-31T12:19:23.228Z,12.40
2023-05-31T12:24:29.607Z,12.33
2023-05-31T12:29:34.362Z,11.99
2023-05-31T12:34:40.433Z,11.79
2023-05-31T12:39:43.854Z,11.83
2023-05-31T12:44:47.400Z,12.13
2023-05-31T12:49:52.283Z,12.83
2023-05-31T12:54:55.671Z,12.79
2023-05-31T13:00:04.845Z,12.15
2023-05-31T13:05:12.842Z,11.73
2023-05-31T13:10:16.889Z,11.19
2023-05-31T13:15:23.556Z,10.85
2023-05-31T13:20:28.479Z,10.85
2023-05-31T13:25:31.919Z,10.71
2023-05-31T13:30:35.356Z,10.52
2023-05-31T13:35:41.324Z,10.42
2023-05-31T13:40:44.891Z,10.30
2023-05-31T13:45:48.667Z,10.22
2023-05-31T13:50:53.553Z,10.45
2023-05-31T13:56:03.148Z,10.64
2023-05-31T14:01:09.134Z,10.99
2023-05-31T14:06:14.323Z,11.47
2023-05-31T14:11:18.448Z,11.77
2023-05-31T14:16:23.915Z,11.60
2023-05-31T14:21:29.394Z,11.88
2023-05-31T14:26:32.902Z,12.09
2023-05-31T14:31:38.451Z,12.05
2023-05-31T14:36:43.788Z,11.88
2023-05-31T14:41:47.765Z,11.74
2023-05-31T14:46:53.285Z,11.64
2023-05-31T14:51:58.843Z,11.48
2023-05-31T14:57:03.777Z,11.55
2023-05-31T15:02:08.622Z,11.65
2023-05-31T15:07:14.706Z,12.06
2023-05-31T15:12:18.283Z,12.12
2023-05-31T15:17:21.756Z,11.92
2023-05-31T15:22:26.712Z,11.83
2023-05-31T15:27:30.096Z,11.72
2023-05-31T15:32:33.896Z,11.59
2023-05-31T15:37:38.765Z,11.52
2023-05-31T15:42:42.224Z,11.38
2023-05-31T15:47:45.846Z,11.18
2023-05-31T15:52:50.880Z,10.88
2023-05-31T15:57:54.409Z,10.78
2023-05-31T16:02:58.102Z,10.80
2023-05-31T16:08:06.410Z,10.71
2023-05-31T16:13:10.014Z,10.98
2023-05-31T16:18:13.484Z,10.98
2023-05-31T16:23:18.673Z,10.82
2023-05-31T16:28:22.144Z,10.66
2023-05-31T16:33:25.913Z,10.58
2023-05-31T16:38:31.054Z,10.52
2023-05-31T16:43:34.512Z,10.46
2023-05-31T16:48:40.290Z,10.51
2023-05-31T16:53:45.364Z,10.48
2023-05-31T16:58:49.431Z,10.44
2023-05-31T17:03:53.195Z,10.39
2023-05-31T17:08:58.045Z,10.30
2023-05-31T17:14:01.453Z,10.08
2023-05-31T17:19:05.234Z,9.83
2023-05-31T17:24:10.209Z,9.56
2023-05-31T17:29:14.256Z,9.40
2023-05-31T17:34:17.710Z,9.21
2023-05-31T17:39:22.544Z,8.97
2023-05-31T17:44:25.988Z,8.68
2023-05-31T17:49:29.470Z,8.40
2023-05-31T17:54:34.324Z,8.13
2023-05-31T17:59:38.890Z,7.97
2023-05-31T18:04:42.314Z,7.81
2023-05-31T18:09:47.602Z,7.65
2023-05-31T18:14:51.200Z,7.55
2023-05-31T18:19:54.869Z,7.45
2023-05-31T18:24:59.778Z,7.41
2023-05-31T18:30:04.260Z,7.36
2023-05-31T18:35:09.230Z,7.24
2023-05-31T18:40:14.554Z,7.20
2023-05-31T18:45:18.011Z,7.12
2023-05-31T18:50:21.934Z,7.03
2023-05-31T18:55:27.087Z,6.93
2023-05-31T19:00:30.678Z,7.02
2023-05-31T19:05:34.237Z,7.06
2023-05-31T19:10:39.178Z,7.03
2023-05-31T19:15:42.580Z,7.07
2023-05-31T19:20:49.374Z,7.05
2023-05-31T19:25:54.863Z,6.93
2023-05-31T19:30:59.217Z,6.92
2023-05-31T19:36:03.232Z,6.90
2023-05-31T19:41:08.696Z,6.85
2023-05-31T19:46:18.145Z,6.79
2023-05-31T19:51:23.154Z,6.69
2023-05-31T19:56:28.198Z,6.73
2023-05-31T20:01:32.005Z,6.67
2023-05-31T20:06:35.786Z,6.56
2023-05-31T20:11:40.615Z,6.51
2023-05-31T20:16:44.124Z,6.45
2023-05-31T20:21:49.244Z,6.42
2023-05-31T20:26:54.249Z,6.26
2023-05-31T20:31:58.806Z,6.12
2023-05-31T20:37:02.342Z,6.05
2023-05-31T20:42:08.024Z,5.96
2023-05-31T20:47:11.459Z,5.90
2023-05-31T20:52:14.996Z,5.87
2023-05-31T20:57:20.888Z,5.86
2023-05-31T21:02:25.088Z,5.87
2023-05-31T21:07:28.848Z,5.91
2023-05-31T21:12:33.632Z,5.90
2023-05-31T21:17:37.035Z,5.96
2023-05-31T21:22:40.672Z,5.92
2023-05-31T21:27:45.535Z,5.86
2023-05-31T21:32:49.631Z,5.80
2023-05-31T21:37:53.149Z,5.72
2023-05-31T21:42:57.887Z,5.63
2023-05-31T21:48:01.666Z,5.52
2023-05-31T21:53:05.351Z,5.40
2023-05-31T21:58:10.138Z,5.20
2023-05-31T22:03:13.690Z,5.03
2023-05-31T22:08:17.056Z,4.80
2023-05-31T22:13:22.970Z,4.59
2023-05-31T22:18:32.071Z,4.52
2023-05-31T22:23:35.922Z,4.52
2023-05-31T22:28:41.484Z,4.38
2023-05-31T22:33:44.984Z,4.22
2023-05-31T22:38:48.501Z,4.14
2023-05-31T22:43:53.625Z,4.15
2023-05-31T22:48:57.266Z,4.25
2023-05-31T22:54:00.696Z,4.34
2023-05-31T22:59:05.565Z,4.50
2023-05-31T23:04:09.782Z,4.58
2023-05-31T23:09:13.416Z,4.68
2023-05-31T23:14:18.667Z,4.75
2023-05-31T23:19:22.473Z,4.70
2023-05-31T23:24:25.853Z,4.73
2023-05-31T23:29:30.847Z,4.70
2023-05-31T23:34:34.402Z,4.63
2023-05-31T23:39:38.088Z,4.58
2023-05-31T23:44:43.059Z,4.57
2023-05-31T23:49:46.664Z,4.48
2023-05-31T23:54:50.476Z,4.22
2023-05-31T23:59:55.341Z,3.93
